TimeCDT,TemperatureF,Dew PointF,Humidity,Sea Level PressureIn,VisibilityMPH,Wind Direction,Wind SpeedMPH,Gust SpeedMPH,PrecipitationIn,Events,Conditions,WindDirDegrees,DateUTC
12:53 AM,66.0,46.0,48,29.93,10.0,South,11.5,-,N/A,,Clear,180,2013-09-15 05:53:00
1:53 AM,66.0,46.9,50,29.92,10.0,South,10.4,-,N/A,,Clear,190,2013-09-15 06:53:00
2:53 AM,66.0,48.0,52,29.91,10.0,South,8.1,-,N/A,,Clear,180,2013-09-15 07:53:00
3:53 AM,64.9,48.9,56,29.89,10.0,South,9.2,-,N/A,,Partly Cloudy,190,2013-09-15 08:53:00
4:53 AM,64.0,50.0,60,29.89,10.0,South,9.2,-,N/A,,Mostly Cloudy,190,2013-09-15 09:53:00
5:53 AM,63.0,51.1,65,29.91,10.0,Calm,Calm,-,N/A,,Mostly Cloudy,0,2013-09-15 10:53:00
6:53 AM,61.0,53.1,75,29.93,10.0,Calm,Calm,-,0.01,,Overcast,0,2013-09-15 11:53:00
7:53 AM,61.0,55.9,83,29.95,5.0,SSW,6.9,-,0.01,Rain,Rain,200,2013-09-15 12:53:00
8:23 AM,60.8,57.2,88,29.96,5.0,SSW,10.4,-,0.07,Rain-Thunderstorm,Light Rain,200,2013-09-15 13:23:00
8:35 AM,60.8,57.2,88,29.95,6.0,SSW,11.5,-,0.09,Rain-Thunderstorm,Light Rain,200,2013-09-15 13:35:00
8:53 AM,61.0,57.9,90,29.93,10.0,SSW,11.5,-,0.10,Rain,Light Rain,210,2013-09-15 13:53:00
9:53 AM,64.0,61.0,90,29.96,9.0,SSW,10.4,-,0.00,,Overcast,210,2013-09-15 14:53:00
10:53 AM,64.0,60.1,87,29.98,9.0,SW,10.4,-,0.00,Rain,Light Rain,230,2013-09-15 15:53:00
11:09 AM,64.4,60.8,88,29.99,6.0,SW,6.9,-,0.01,Rain,Light Rain,230,2013-09-15 16:09:00
11:53 AM,64.9,62.1,90,29.97,8.0,West,6.9,-,0.04,Rain,Light Rain,260,2013-09-15 16:53:00
12:03 PM,64.4,62.6,94,29.99,8.0,WSW,8.1,-,0.00,,Overcast,250,2013-09-15 17:03:00
12:37 PM,64.4,62.6,94,30.00,4.0,WSW,6.9,-,0.01,Rain,Light Rain,250,2013-09-15 17:37:00
12:53 PM,66.0,63.0,90,30.00,8.0,West,10.4,-,0.01,Rain,Light Rain,260,2013-09-15 17:53:00
1:02 PM,66.2,64.4,94,30.01,9.0,West,9.2,-,0.00,Rain,Light Rain,270,2013-09-15 18:02:00
1:11 PM,66.2,64.4,94,30.01,8.0,West,9.2,-,0.00,,Overcast,270,2013-09-15 18:11:00
1:53 PM,66.9,64.0,90,29.99,9.0,WNW,5.8,-,0.00,Rain,Light Rain,300,2013-09-15 18:53:00
2:53 PM,66.9,61.0,81,30.01,10.0,North,10.4,-,0.00,,Overcast,360,2013-09-15 19:53:00
3:53 PM,68.0,60.1,76,30.04,10.0,North,12.7,-,N/A,,Overcast,360,2013-09-15 20:53:00
4:53 PM,66.0,59.0,78,30.06,10.0,North,12.7,-,0.00,Rain,Light Rain,360,2013-09-15 21:53:00
5:53 PM,64.9,57.0,75,30.08,10.0,NNE,13.8,-,0.00,,Overcast,30,2013-09-15 22:53:00
6:53 PM,64.9,55.9,73,30.12,10.0,NNE,11.5,-,N/A,,Overcast,30,2013-09-15 23:53:00
7:53 PM,63.0,55.0,75,30.14,10.0,NE,13.8,-,N/A,,Overcast,40,2013-09-16 00:53:00
8:53 PM,63.0,54.0,72,30.18,10.0,NNE,9.2,-,N/A,,Overcast,30,2013-09-16 01:53:00
9:53 PM,62.1,54.0,75,30.19,10.0,NE,13.8,-,N/A,,Overcast,40,2013-09-16 02:53:00
10:53 PM,62.1,53.1,72,30.20,10.0,NE,10.4,-,N/A,,Overcast,40,2013-09-16 03:53:00
11:42 PM,59.0,51.8,77,30.21,10.0,NE,9.2,-,N/A,,Scattered Clouds,40,2013-09-16 04:42:00
11:53 PM,57.9,52.0,81,30.21,10.0,NE,10.4,-,N/A,,Scattered Clouds,40,2013-09-16 04:53:00